createdAt,value
2018-02-23T00:00:19.625Z,13.80
2018-02-23T00:01:19.939Z,13.80
2018-02-23T00:02:20.253Z,12.80
2018-02-23T00:03:20.571Z,13.70
2018-02-23T00:04:20.939Z,12.00
2018-02-23T00:05:21.216Z,13.90
2018-02-23T00:06:21.537Z,11.20
2018-02-23T00:07:21.853Z,12.20
2018-02-23T00:08:22.162Z,12.40
2018-02-23T00:09:22.469Z,12.10
2018-02-23T00:10:22.798Z,12.70
2018-02-23T00:11:23.118Z,12.30
2018-02-23T00:12:23.436Z,12.60
2018-02-23T00:13:23.758Z,11.60
2018-02-23T00:14:24.078Z,14.10
2018-02-23T00:15:24.408Z,13.50
2018-02-23T00:16:24.516Z,14.50
2018-02-23T00:17:24.836Z,12.40
2018-02-23T00:18:25.156Z,13.50
2018-02-23T00:19:25.476Z,13.10
2018-02-23T00:20:25.795Z,13.60
2018-02-23T00:21:26.130Z,11.90
2018-02-23T00:22:26.433Z,13.00
2018-02-23T00:23:26.755Z,12.80
2018-02-23T00:24:27.065Z,11.90
2018-02-23T00:25:27.438Z,13.20
2018-02-23T00:26:27.699Z,13.00
2018-02-23T00:27:28.007Z,13.00
2018-02-23T00:28:28.328Z,13.20
2018-02-23T00:29:28.638Z,13.90
2018-02-23T00:30:28.949Z,12.70
2018-02-23T00:31:29.271Z,13.40
2018-02-23T00:32:29.587Z,14.70
2018-02-23T00:33:29.892Z,12.70
2018-02-23T00:34:30.216Z,13.70
2018-02-23T00:35:30.536Z,12.80
2018-02-23T00:36:30.859Z,14.00
2018-02-23T00:37:31.178Z,13.60
2018-02-23T00:38:31.497Z,13.00
2018-02-23T00:39:31.818Z,12.90
2018-02-23T00:40:32.141Z,12.40
2018-02-23T00:41:32.457Z,12.90
2018-02-23T00:42:32.776Z,11.90
2018-02-23T00:43:33.102Z,13.20
2018-02-23T00:44:33.216Z,12.50
2018-02-23T00:45:33.323Z,14.10
2018-02-23T00:46:33.642Z,14.50
2018-02-23T00:47:33.961Z,12.50
2018-02-23T00:48:34.280Z,12.90
2018-02-23T00:49:34.600Z,14.10
2018-02-23T00:50:34.922Z,13.70
2018-02-23T00:51:35.245Z,14.40
2018-02-23T00:52:35.560Z,14.60
2018-02-23T00:53:35.872Z,13.30
2018-02-23T00:54:36.186Z,12.60
2018-02-23T00:55:36.500Z,13.30
2018-02-23T00:56:36.816Z,13.50
2018-02-23T00:57:37.143Z,15.00
2018-02-23T00:58:37.446Z,13.50
2018-02-23T00:59:37.758Z,12.90
2018-02-23T01:00:38.076Z,14.30
2018-02-23T01:01:38.389Z,14.70
2018-02-23T01:02:38.716Z,13.50
2018-02-23T01:03:39.033Z,15.50
2018-02-23T01:04:39.352Z,15.70
2018-02-23T01:05:39.671Z,14.50
2018-02-23T01:06:39.992Z,15.00
2018-02-23T01:07:40.313Z,14.30
2018-02-23T01:08:40.631Z,14.60
2018-02-23T01:09:40.947Z,17.00
2018-02-23T01:10:41.270Z,15.60
2018-02-23T01:11:41.604Z,15.00
2018-02-23T01:12:41.715Z,15.30
2018-02-23T01:13:41.864Z,15.00
2018-02-23T01:14:41.972Z,14.60
2018-02-23T01:15:42.284Z,15.10
2018-02-23T01:16:42.606Z,15.50
2018-02-23T01:17:42.922Z,16.40
2018-02-23T01:18:43.242Z,16.10
2018-02-23T01:19:43.559Z,15.20
2018-02-23T01:20:43.880Z,15.50
2018-02-23T01:21:44.197Z,17.20
2018-02-23T01:22:44.519Z,15.00
2018-02-23T01:23:44.838Z,15.00
2018-02-23T01:24:45.158Z,15.90
2018-02-23T01:25:45.486Z,16.80
2018-02-23T01:26:45.597Z,15.90
2018-02-23T01:27:45.711Z,15.50
2018-02-23T01:28:45.818Z,15.50
2018-02-23T01:29:46.138Z,16.20
2018-02-23T01:30:46.458Z,15.10
2018-02-23T01:31:46.778Z,16.50
2018-02-23T01:32:47.097Z,15.30
2018-02-23T01:33:47.423Z,16.30
2018-02-23T01:34:47.737Z,14.70
2018-02-23T01:35:48.049Z,16.00
2018-02-23T01:36:48.375Z,16.30
2018-02-23T01:37:48.683Z,16.00
2018-02-23T01:38:48.992Z,16.70
2018-02-23T01:39:49.306Z,15.80
2018-02-23T01:40:49.622Z,15.30
2018-02-23T01:41:49.937Z,15.70
2018-02-23T01:42:50.256Z,15.40
2018-02-23T01:43:50.565Z,16.50
2018-02-23T01:44:50.878Z,17.20
2018-02-23T01:45:51.204Z,14.30
2018-02-23T01:46:51.515Z,17.00
2018-02-23T01:47:51.826Z,16.80
2018-02-23T01:48:52.147Z,17.90
2018-02-23T01:49:52.455Z,15.60
2018-02-23T01:50:52.776Z,15.90
2018-02-23T01:51:53.094Z,17.10
2018-02-23T01:52:53.416Z,15.20
2018-02-23T01:53:53.523Z,16.20
2018-02-23T01:54:53.843Z,17.90
2018-02-23T01:55:54.163Z,16.30
2018-02-23T01:56:54.482Z,14.60
2018-02-23T01:57:54.801Z,14.60
2018-02-23T01:58:55.122Z,14.70
2018-02-23T01:59:55.442Z,15.60
2018-02-23T02:00:55.772Z,15.70
2018-02-23T02:01:55.879Z,15.70
2018-02-23T02:02:56.199Z,15.70
2018-02-23T02:03:56.517Z,15.80
2018-02-23T02:04:56.839Z,17.40
2018-02-23T02:05:57.153Z,16.40
2018-02-23T02:06:57.473Z,15.40
2018-02-23T02:07:57.793Z,15.70
2018-02-23T02:08:58.117Z,15.80
2018-02-23T02:09:58.440Z,16.20
2018-02-23T02:10:58.745Z,15.50
2018-02-23T02:11:59.061Z,15.70
2018-02-23T02:12:59.380Z,16.00
2018-02-23T02:13:59.722Z,15.40
2018-02-23T02:15:00.007Z,15.20
2018-02-23T02:16:00.318Z,15.80
2018-02-23T02:17:00.634Z,17.90
2018-02-23T02:18:00.953Z,17.00
2018-02-23T02:19:01.062Z,15.70
2018-02-23T02:20:01.376Z,17.00
2018-02-23T02:21:01.684Z,17.40
2018-02-23T02:22:01.999Z,16.70
2018-02-23T02:23:02.315Z,16.40
2018-02-23T02:24:02.631Z,18.80
2018-02-23T02:25:02.955Z,16.10
2018-02-23T02:26:03.274Z,14.70
2018-02-23T02:27:03.593Z,16.10
2018-02-23T02:28:03.912Z,15.50
2018-02-23T02:29:04.231Z,16.60
2018-02-23T02:30:04.552Z,15.80
2018-02-23T02:31:04.873Z,14.80
2018-02-23T02:32:05.192Z,17.80
2018-02-23T02:33:05.525Z,16.50
2018-02-23T02:34:05.634Z,16.70
2018-02-23T02:35:05.952Z,15.10
2018-02-23T02:36:06.272Z,16.30
2018-02-23T02:37:06.591Z,14.60
2018-02-23T02:38:06.909Z,18.30
2018-02-23T02:39:07.231Z,15.10
2018-02-23T02:40:07.552Z,15.70
2018-02-23T02:41:07.882Z,15.00
2018-02-23T02:42:08.181Z,17.40
2018-02-23T02:43:08.497Z,15.40
2018-02-23T02:44:08.811Z,16.30
2018-02-23T02:45:09.127Z,14.90
2018-02-23T02:46:09.441Z,17.60
2018-02-23T02:47:09.761Z,15.40
2018-02-23T02:48:09.867Z,15.50
2018-02-23T02:49:10.215Z,15.40
2018-02-23T02:50:10.322Z,17.10
2018-02-23T02:51:10.641Z,14.60
2018-02-23T02:52:10.960Z,15.40
2018-02-23T02:53:11.281Z,17.30
2018-02-23T02:54:11.600Z,16.40
2018-02-23T02:55:11.927Z,14.50
2018-02-23T02:56:12.042Z,15.30
2018-02-23T02:57:12.156Z,16.50
2018-02-23T02:58:12.255Z,17.60
2018-02-23T02:59:12.576Z,16.70
2018-02-23T03:00:12.896Z,16.50
2018-02-23T03:01:13.211Z,15.30
2018-02-23T03:02:13.528Z,15.70
2018-02-23T03:03:13.852Z,16.50
2018-02-23T03:04:14.169Z,18.20
2018-02-23T03:05:14.494Z,17.40
2018-02-23T03:06:14.797Z,17.10
2018-02-23T03:07:15.120Z,17.50
2018-02-23T03:08:15.435Z,16.80
2018-02-23T03:09:15.750Z,15.60
2018-02-23T03:10:16.062Z,17.60
2018-02-23T03:11:16.377Z,17.40
2018-02-23T03:12:16.704Z,16.50
2018-02-23T03:13:16.986Z,17.70
2018-02-23T03:14:17.306Z,18.10
2018-02-23T03:15:17.626Z,16.90
2018-02-23T03:16:17.947Z,19.10
2018-02-23T03:17:18.265Z,19.70
2018-02-23T03:18:18.577Z,18.60
2018-02-23T03:19:18.891Z,18.80
2018-02-23T03:20:19.205Z,17.80
2018-02-23T03:21:19.526Z,18.10
2018-02-23T03:22:19.837Z,18.60
2018-02-23T03:23:20.158Z,19.80
2018-02-23T03:24:20.468Z,19.60
2018-02-23T03:25:20.776Z,20.80
2018-02-23T03:26:21.096Z,20.10
2018-02-23T03:27:21.408Z,19.00
2018-02-23T03:28:21.723Z,20.20
2018-02-23T03:29:22.037Z,20.60
2018-02-23T03:30:22.358Z,20.60
2018-02-23T03:31:22.664Z,20.10
2018-02-23T03:32:22.977Z,20.50
2018-02-23T03:33:23.293Z,20.40
2018-02-23T03:34:23.608Z,20.50
2018-02-23T03:35:23.922Z,21.00
2018-02-23T03:36:24.235Z,18.30
2018-02-23T03:37:24.551Z,23.50
2018-02-23T03:38:24.864Z,20.50
2018-02-23T03:39:25.178Z,21.00
2018-02-23T03:40:25.504Z,22.60
2018-02-23T03:41:25.813Z,20.80
2018-02-23T03:42:26.121Z,19.90
2018-02-23T03:43:26.437Z,21.60
2018-02-23T03:44:26.751Z,21.80
2018-02-23T03:45:27.065Z,20.70
2018-02-23T03:46:27.378Z,21.80
2018-02-23T03:47:27.698Z,20.00
2018-02-23T03:48:28.008Z,21.80
2018-02-23T03:49:28.323Z,21.30
2018-02-23T03:50:28.636Z,21.40
2018-02-23T03:51:28.969Z,21.70
2018-02-23T03:52:29.265Z,22.20
2018-02-23T03:53:29.578Z,24.70
2018-02-23T03:54:29.894Z,23.00
2018-02-23T03:55:30.207Z,23.40
2018-02-23T03:56:30.535Z,22.00
2018-02-23T03:57:30.836Z,25.20
2018-02-23T03:58:31.151Z,23.50
2018-02-23T03:59:31.489Z,23.60
2018-02-23T04:00:31.629Z,25.20
2018-02-23T04:01:31.919Z,24.30
2018-02-23T04:02:32.238Z,25.20
2018-02-23T04:03:32.594Z,25.70
2018-02-23T04:04:32.700Z,22.40
2018-02-23T04:05:33.020Z,25.60
2018-02-23T04:06:33.338Z,26.80
2018-02-23T04:07:33.657Z,26.60
2018-02-23T04:08:33.976Z,25.60
2018-02-23T04:09:34.309Z,22.70
2018-02-23T04:10:34.614Z,25.40
2018-02-23T04:11:34.930Z,23.20
2018-02-23T04:12:35.249Z,26.20
2018-02-23T04:13:35.559Z,25.90
2018-02-23T04:14:35.874Z,24.90
2018-02-23T04:15:36.196Z,23.60
2018-02-23T04:16:36.502Z,25.10
2018-02-23T04:17:36.815Z,22.80
2018-02-23T04:18:37.131Z,22.50
2018-02-23T04:19:37.443Z,22.60
2018-02-23T04:20:37.773Z,23.40
2018-02-23T04:21:38.073Z,23.20
2018-02-23T04:22:38.399Z,24.00
2018-02-23T04:23:38.708Z,23.30
2018-02-23T04:24:39.041Z,24.00
2018-02-23T04:25:39.147Z,24.40
2018-02-23T04:26:39.463Z,24.10
2018-02-23T04:27:39.783Z,25.90
2018-02-23T04:28:39.893Z,24.30
2018-02-23T04:29:40.211Z,23.30
2018-02-23T04:30:40.531Z,24.70
2018-02-23T04:31:40.850Z,22.40
2018-02-23T04:32:41.170Z,24.10
2018-02-23T04:33:41.501Z,22.40
2018-02-23T04:34:41.611Z,24.00
2018-02-23T04:35:41.738Z,24.50
2018-02-23T04:36:41.843Z,27.20
2018-02-23T04:37:42.161Z,22.80
2018-02-23T04:38:42.480Z,23.80
2018-02-23T04:39:42.813Z,25.70
2018-02-23T04:40:42.922Z,23.10
2018-02-23T04:41:43.234Z,23.90
2018-02-23T04:42:43.546Z,24.30
2018-02-23T04:43:43.865Z,25.70
2018-02-23T04:44:44.179Z,23.90
2018-02-23T04:45:44.500Z,23.90
2018-02-23T04:46:44.607Z,25.00
2018-02-23T04:47:44.920Z,24.50
2018-02-23T04:48:45.239Z,24.10
2018-02-23T04:49:45.566Z,23.50
2018-02-23T04:50:45.885Z,25.20
2018-02-23T04:51:46.210Z,23.60
2018-02-23T04:52:46.326Z,24.20
2018-02-23T04:53:46.430Z,25.30
2018-02-23T04:54:46.754Z,24.50
2018-02-23T04:55:47.071Z,26.50
2018-02-23T04:56:47.398Z,25.20
2018-02-23T04:57:47.520Z,27.40
2018-02-23T04:58:47.628Z,25.00
2018-02-23T04:59:47.948Z,25.50
2018-02-23T05:00:48.265Z,27.00
2018-02-23T05:01:48.584Z,25.90
2018-02-23T05:02:48.904Z,27.00
2018-02-23T05:03:49.231Z,27.70
2018-02-23T05:04:49.542Z,27.60
2018-02-23T05:05:49.862Z,24.50
2018-02-23T05:06:50.174Z,27.70
2018-02-23T05:07:50.489Z,29.00
2018-02-23T05:08:50.800Z,27.60
2018-02-23T05:09:51.124Z,28.70
2018-02-23T05:10:51.465Z,29.10
2018-02-23T05:11:51.748Z,29.50
2018-02-23T05:12:52.058Z,28.70
2018-02-23T05:13:52.377Z,25.50
2018-02-23T05:14:52.688Z,27.50
2018-02-23T05:15:52.998Z,28.00
2018-02-23T05:16:53.335Z,24.70
2018-02-23T05:17:53.628Z,25.70
2018-02-23T05:18:53.944Z,26.00
2018-02-23T05:19:54.256Z,26.50
2018-02-23T05:20:54.585Z,26.40
2018-02-23T05:21:54.900Z,25.50
2018-02-23T05:22:55.213Z,25.90
2018-02-23T05:23:55.533Z,29.30
2018-02-23T05:24:55.840Z,28.70
2018-02-23T05:25:56.147Z,27.00
2018-02-23T05:26:56.473Z,26.90
2018-02-23T05:27:56.783Z,30.10
2018-02-23T05:28:57.111Z,31.80
2018-02-23T05:29:57.432Z,27.50
2018-02-23T05:30:57.750Z,28.20
2018-02-23T05:31:58.069Z,28.70
2018-02-23T05:32:58.390Z,29.60
2018-02-23T05:33:58.708Z,29.50
2018-02-23T05:34:59.027Z,29.90
2018-02-23T05:35:59.354Z,30.10
2018-02-23T05:36:59.462Z,29.70
2018-02-23T05:37:59.781Z,30.80
2018-02-23T05:39:00.103Z,30.40
2018-02-23T05:40:00.420Z,30.20
2018-02-23T05:41:00.739Z,32.10
2018-02-23T05:42:01.057Z,30.90
2018-02-23T05:43:01.372Z,31.10
2018-02-23T05:44:01.699Z,31.30
2018-02-23T05:45:02.000Z,31.60
2018-02-23T05:46:02.328Z,31.80
2018-02-23T05:47:02.640Z,31.60
2018-02-23T05:48:02.957Z,31.50
2018-02-23T05:49:03.271Z,33.80
2018-02-23T05:50:03.585Z,32.50
2018-02-23T05:51:03.898Z,31.10
2018-02-23T05:52:04.214Z,31.90
2018-02-23T05:53:04.528Z,31.80
2018-02-23T05:54:04.845Z,30.60
2018-02-23T05:55:05.156Z,31.90
2018-02-23T05:56:05.471Z,31.40
2018-02-23T05:57:05.787Z,34.70
2018-02-23T05:58:06.099Z,31.00
2018-02-23T05:59:06.413Z,33.10
2018-02-23T06:00:06.728Z,34.80
2018-02-23T06:01:07.046Z,33.70
2018-02-23T06:02:07.359Z,31.70
2018-02-23T06:03:07.680Z,34.20
2018-02-23T06:04:07.999Z,31.90
2018-02-23T06:05:08.318Z,31.70
2018-02-23T06:06:08.637Z,34.00
2018-02-23T06:07:08.964Z,31.20
2018-02-23T06:08:09.117Z,35.30
2018-02-23T06:09:09.371Z,33.40
2018-02-23T06:10:09.690Z,33.90
2018-02-23T06:11:10.055Z,36.20
2018-02-23T06:12:10.330Z,32.50
2018-02-23T06:13:10.648Z,33.20
2018-02-23T06:14:10.971Z,33.70
2018-02-23T06:15:11.287Z,33.90
2018-02-23T06:16:11.604Z,34.10
2018-02-23T06:17:11.950Z,35.50
2018-02-23T06:18:12.065Z,37.20
2018-02-23T06:19:12.377Z,35.30
2018-02-23T06:20:12.696Z,34.70
2018-02-23T06:21:13.012Z,35.50
2018-02-23T06:22:13.339Z,36.60
2018-02-23T06:23:13.776Z,34.60
2018-02-23T06:24:13.965Z,33.70
2018-02-23T06:25:14.278Z,35.00
2018-02-23T06:26:14.594Z,38.60
2018-02-23T06:27:14.909Z,33.90
2018-02-23T06:28:15.221Z,33.40
2018-02-23T06:29:15.543Z,34.10
2018-02-23T06:30:15.851Z,35.40
2018-02-23T06:31:16.168Z,36.30
2018-02-23T06:32:16.478Z,35.40
2018-02-23T06:33:16.793Z,34.10
2018-02-23T06:34:17.113Z,34.30
2018-02-23T06:35:17.422Z,36.30
2018-02-23T06:36:17.738Z,36.40
2018-02-23T06:37:18.058Z,35.60
2018-02-23T06:38:18.370Z,38.00
2018-02-23T06:39:18.688Z,37.40
2018-02-23T06:40:18.992Z,36.20
2018-02-23T06:41:19.308Z,35.80
2018-02-23T06:42:19.420Z,37.60
2018-02-23T06:43:19.734Z,38.50
2018-02-23T06:44:20.050Z,38.00
2018-02-23T06:45:20.359Z,37.50
2018-02-23T06:46:20.678Z,35.90
2018-02-23T06:47:21.005Z,37.00
2018-02-23T06:48:21.309Z,39.90
2018-02-23T06:49:21.629Z,39.00
2018-02-23T06:50:21.948Z,39.20
2018-02-23T06:51:22.262Z,36.90
2018-02-23T06:52:22.588Z,38.00
2018-02-23T06:53:22.905Z,38.90
2018-02-23T06:54:23.224Z,37.10
2018-02-23T06:55:23.545Z,38.60
2018-02-23T06:56:23.867Z,39.70
2018-02-23T06:57:24.183Z,40.10
2018-02-23T06:58:24.511Z,40.40
2018-02-23T06:59:24.813Z,38.60
2018-02-23T07:00:25.143Z,38.30
2018-02-23T07:01:25.461Z,39.80
2018-02-23T07:02:25.784Z,38.20
2018-02-23T07:03:26.104Z,38.70
2018-02-23T07:04:26.211Z,39.10
2018-02-23T07:05:26.530Z,41.80
2018-02-23T07:06:26.849Z,41.60
2018-02-23T07:07:27.176Z,41.60
2018-02-23T07:08:27.486Z,41.80
2018-02-23T07:09:27.804Z,41.30
2018-02-23T07:10:28.116Z,39.90
2018-02-23T07:11:28.442Z,42.40
2018-02-23T07:12:28.750Z,41.00
2018-02-23T07:13:29.060Z,41.20
2018-02-23T07:14:29.374Z,39.40
2018-02-23T07:15:29.700Z,40.30
2018-02-23T07:16:30.025Z,40.00
2018-02-23T07:17:30.317Z,39.50
2018-02-23T07:18:30.631Z,40.60
2018-02-23T07:19:30.947Z,39.80
2018-02-23T07:20:31.259Z,39.00
2018-02-23T07:21:31.578Z,40.90
2018-02-23T07:22:31.906Z,37.80
2018-02-23T07:23:32.201Z,37.70
2018-02-23T07:24:32.589Z,39.20
2018-02-23T07:25:32.831Z,41.10
2018-02-23T07:26:33.145Z,39.40
2018-02-23T07:27:33.460Z,41.20
2018-02-23T07:28:33.775Z,40.90
2018-02-23T07:29:34.091Z,37.50
2018-02-23T07:30:34.968Z,39.10
2018-02-23T07:31:34.535Z,37.50
2018-02-23T07:32:35.178Z,37.60
2018-02-23T07:33:35.175Z,39.90
2018-02-23T07:34:35.876Z,37.60
2018-02-23T07:35:36.177Z,36.30
2018-02-23T07:36:36.129Z,38.50
2018-02-23T07:37:36.449Z,38.30
2018-02-23T07:38:36.767Z,39.80
2018-02-23T07:39:37.094Z,38.70
2018-02-23T07:40:37.204Z,37.20
2018-02-23T07:41:37.315Z,35.80
2018-02-23T07:42:37.636Z,38.70
2018-02-23T07:43:37.955Z,40.40
2018-02-23T07:44:38.274Z,39.90
2018-02-23T07:45:38.815Z,38.00
2018-02-23T07:46:38.921Z,38.40
2018-02-23T07:47:39.328Z,40.00
2018-02-23T07:48:39.553Z,38.30
2018-02-23T07:49:39.868Z,39.10
2018-02-23T07:50:40.182Z,40.70
2018-02-23T07:51:40.500Z,40.00
2018-02-23T07:52:40.806Z,39.20
2018-02-23T07:53:41.123Z,35.40
2018-02-23T07:54:41.684Z,37.20
2018-02-23T07:55:41.776Z,39.50
2018-02-23T07:56:41.871Z,37.30
2018-02-23T07:57:42.197Z,38.90
2018-02-23T07:58:42.502Z,35.60
2018-02-23T07:59:42.812Z,36.00
2018-02-23T08:00:43.140Z,36.50
2018-02-23T08:01:43.238Z,36.80
2018-02-23T08:02:43.557Z,37.20
2018-02-23T08:03:43.876Z,37.90
2018-02-23T08:04:44.196Z,37.30
2018-02-23T08:05:44.517Z,37.50
2018-02-23T08:06:44.835Z,38.90
2018-02-23T08:07:45.155Z,38.60
2018-02-23T08:08:45.496Z,37.50
2018-02-23T08:09:45.606Z,35.80
2018-02-23T08:10:45.713Z,37.00
2018-02-23T08:11:46.031Z,34.50
2018-02-23T08:12:46.350Z,35.70
2018-02-23T08:13:46.669Z,36.10
2018-02-23T08:14:46.989Z,35.90
2018-02-23T08:15:47.310Z,37.90
2018-02-23T08:16:47.625Z,37.40
2018-02-23T08:17:47.949Z,38.80
2018-02-23T08:18:48.264Z,36.80
2018-02-23T08:19:48.588Z,38.10
2018-02-23T08:20:48.893Z,39.00
2018-02-23T08:21:49.209Z,35.70
2018-02-23T08:22:49.555Z,33.70
2018-02-23T08:23:49.662Z,34.80
2018-02-23T08:24:49.983Z,37.00
2018-02-23T08:25:50.300Z,36.00
2018-02-23T08:26:50.652Z,34.80
2018-02-23T08:27:50.754Z,34.80
2018-02-23T08:28:51.073Z,36.60
2018-02-23T08:29:51.392Z,35.60
2018-02-23T08:30:51.738Z,37.70
2018-02-23T08:31:51.838Z,35.40
2018-02-23T08:32:52.153Z,35.40
2018-02-23T08:33:52.508Z,38.00
2018-02-23T08:34:52.612Z,34.80
2018-02-23T08:35:52.937Z,35.70
2018-02-23T08:36:53.045Z,35.10
2018-02-23T08:37:53.362Z,35.20
2018-02-23T08:38:53.682Z,36.70
2018-02-23T08:39:54.075Z,33.30
2018-02-23T08:40:54.330Z,35.30
2018-02-23T08:41:54.652Z,36.50
2018-02-23T08:42:54.759Z,33.10
2018-02-23T08:43:55.079Z,36.70
2018-02-23T08:44:55.399Z,37.00
2018-02-23T08:45:55.715Z,34.80
2018-02-23T08:46:56.043Z,36.80
2018-02-23T08:47:56.377Z,37.30
2018-02-23T08:48:56.501Z,37.40
2018-02-23T08:49:56.787Z,35.50
2018-02-23T08:50:57.097Z,31.10
2018-02-23T08:51:57.413Z,35.40
2018-02-23T08:52:57.722Z,36.10
2018-02-23T08:53:58.038Z,38.20
2018-02-23T08:54:58.353Z,34.40
2018-02-23T08:55:58.673Z,34.00
2018-02-23T08:56:58.989Z,33.10
2018-02-23T08:57:59.294Z,34.20
2018-02-23T08:58:59.616Z,32.20
2018-02-23T08:59:59.945Z,36.60
2018-02-23T09:01:00.056Z,30.50
2018-02-23T09:02:00.372Z,34.00
2018-02-23T09:03:00.691Z,35.50
2018-02-23T09:04:01.011Z,36.00
2018-02-23T09:05:01.332Z,32.20
2018-02-23T09:06:01.652Z,34.80
2018-02-23T09:07:01.971Z,33.30
2018-02-23T09:08:02.299Z,31.70
2018-02-23T09:09:02.408Z,32.10
2018-02-23T09:10:02.730Z,31.10
2018-02-23T09:11:03.052Z,34.00
2018-02-23T09:12:03.370Z,33.40
2018-02-23T09:13:03.689Z,31.60
2018-02-23T09:14:04.019Z,33.60
2018-02-23T09:15:04.362Z,35.00
2018-02-23T09:16:04.648Z,34.70
2018-02-23T09:17:04.958Z,33.50
2018-02-23T09:18:05.274Z,34.00
2018-02-23T09:19:05.590Z,36.10
2018-02-23T09:20:05.908Z,30.50
2018-02-23T09:21:06.230Z,35.30
2018-02-23T09:22:06.540Z,29.90
2018-02-23T09:23:06.856Z,29.40
2018-02-23T09:24:07.176Z,29.70
2018-02-23T09:25:07.494Z,31.50
2018-02-23T09:26:07.810Z,32.70
2018-02-23T09:27:08.133Z,31.40
2018-02-23T09:28:08.228Z,32.00
2018-02-23T09:29:08.551Z,32.40
2018-02-23T09:30:08.864Z,31.60
2018-02-23T09:31:09.181Z,30.10
2018-02-23T09:32:09.504Z,29.30
2018-02-23T09:33:09.823Z,30.50
2018-02-23T09:34:10.195Z,28.50
2018-02-23T09:35:10.464Z,31.10
2018-02-23T09:36:10.791Z,27.00
2018-02-23T09:37:10.903Z,32.20
2018-02-23T09:38:11.013Z,33.40
2018-02-23T09:39:11.333Z,32.70
2018-02-23T09:40:11.690Z,30.60
2018-02-23T09:41:11.766Z,27.40
2018-02-23T09:42:12.085Z,27.80
2018-02-23T09:43:12.418Z,28.90
2018-02-23T09:44:12.731Z,31.10
2018-02-23T09:45:13.044Z,27.70
2018-02-23T09:46:13.361Z,27.90
2018-02-23T09:47:13.681Z,27.60
2018-02-23T09:48:13.986Z,30.10
2018-02-23T09:49:14.376Z,33.90
2018-02-23T09:50:14.440Z,29.40
2018-02-23T09:51:14.743Z,24.80
2018-02-23T09:52:15.067Z,27.70
2018-02-23T09:53:15.385Z,29.60
2018-02-23T09:54:15.705Z,30.60
2018-02-23T09:55:16.027Z,29.70
2018-02-23T09:56:16.347Z,27.50
2018-02-23T09:57:16.675Z,28.90
2018-02-23T09:58:16.784Z,27.10
2018-02-23T09:59:16.897Z,27.40
2018-02-23T10:00:17.212Z,28.90
2018-02-23T10:01:17.539Z,29.30
2018-02-23T10:02:17.849Z,26.70
2018-02-23T10:03:18.166Z,27.10
2018-02-23T10:04:18.494Z,28.60
2018-02-23T10:05:18.816Z,27.20
2018-02-23T10:06:19.134Z,28.00
2018-02-23T10:07:19.450Z,28.10
2018-02-23T10:08:19.763Z,26.30
2018-02-23T10:09:20.075Z,28.40
2018-02-23T10:10:20.394Z,32.80
2018-02-23T10:11:20.705Z,26.50
2018-02-23T10:12:21.032Z,26.30
2018-02-23T10:13:21.338Z,26.20
2018-02-23T10:14:21.654Z,26.40
2018-02-23T10:15:21.970Z,26.40
2018-02-23T10:16:22.280Z,26.40
2018-02-23T10:17:22.597Z,27.40
2018-02-23T10:18:22.911Z,27.00
2018-02-23T10:19:23.027Z,27.80
2018-02-23T10:20:23.347Z,27.40
2018-02-23T10:21:23.667Z,26.70
2018-02-23T10:22:23.985Z,23.00
2018-02-23T10:23:24.308Z,24.20
2018-02-23T10:24:24.629Z,26.10
2018-02-23T10:25:24.949Z,24.80
2018-02-23T10:26:25.279Z,24.40
2018-02-23T10:27:25.394Z,25.80
2018-02-23T10:28:25.505Z,24.70
2018-02-23T10:29:25.850Z,30.70
2018-02-23T10:30:25.950Z,23.30
2018-02-23T10:31:26.448Z,29.70
2018-02-23T10:32:26.566Z,26.90
2018-02-23T10:33:26.675Z,29.50
2018-02-23T10:34:26.987Z,29.30
2018-02-23T10:35:27.315Z,25.90
2018-02-23T10:36:27.420Z,26.50
2018-02-23T10:37:27.740Z,24.70
2018-02-23T10:38:28.066Z,24.20
2018-02-23T10:39:28.383Z,23.90
2018-02-23T10:40:28.704Z,25.90
2018-02-23T10:41:29.011Z,30.50
2018-02-23T10:42:29.365Z,24.90
2018-02-23T10:43:29.639Z,26.70
2018-02-23T10:44:29.957Z,25.60
2018-02-23T10:45:30.279Z,25.50
2018-02-23T10:46:30.592Z,28.60
2018-02-23T10:47:30.921Z,26.70
2018-02-23T10:48:31.242Z,25.20
2018-02-23T10:49:31.562Z,25.20
2018-02-23T10:50:31.885Z,26.50
2018-02-23T10:51:32.202Z,25.50
2018-02-23T10:52:32.534Z,27.40
2018-02-23T10:53:32.645Z,25.70
2018-02-23T10:54:32.966Z,27.80
2018-02-23T10:55:33.287Z,25.90
2018-02-23T10:56:33.608Z,31.00
2018-02-23T10:57:33.938Z,28.70
2018-02-23T10:58:34.255Z,27.10
2018-02-23T10:59:34.563Z,27.20
2018-02-23T11:00:34.903Z,27.90
2018-02-23T11:01:35.192Z,29.70
2018-02-23T11:02:35.511Z,26.10
2018-02-23T11:03:35.822Z,26.90
2018-02-23T11:04:36.144Z,25.50
2018-02-23T11:05:36.463Z,25.30
2018-02-23T11:06:36.776Z,23.40
2018-02-23T11:07:37.088Z,24.00
2018-02-23T11:08:37.218Z,25.00
2018-02-23T11:09:37.507Z,23.60
2018-02-23T11:10:37.836Z,26.10
2018-02-23T11:11:38.172Z,24.40
2018-02-23T11:12:38.461Z,23.80
2018-02-23T11:13:38.782Z,21.70
2018-02-23T11:14:39.103Z,24.70
2018-02-23T11:15:39.422Z,23.10
2018-02-23T11:16:39.746Z,22.00
2018-02-23T11:17:40.064Z,23.40
2018-02-23T11:18:40.385Z,25.50
2018-02-23T11:19:40.718Z,25.70
2018-02-23T11:20:40.828Z,27.70
2018-02-23T11:21:41.178Z,24.10
2018-02-23T11:22:41.290Z,22.30
2018-02-23T11:23:41.398Z,21.30
2018-02-23T11:24:41.712Z,22.70
2018-02-23T11:25:41.828Z,24.60
2018-02-23T11:26:42.166Z,24.20
2018-02-23T11:27:42.272Z,25.80
2018-02-23T11:28:42.593Z,27.70
2018-02-23T11:29:42.914Z,27.30
2018-02-23T11:30:43.234Z,24.60
2018-02-23T11:31:43.562Z,26.60
2018-02-23T11:32:43.883Z,44.60
2018-02-23T11:33:44.204Z,25.20
2018-02-23T11:34:44.526Z,26.90
2018-02-23T11:35:44.841Z,26.60
2018-02-23T11:36:45.177Z,27.90
2018-02-23T11:37:45.484Z,25.90
2018-02-23T11:38:45.799Z,28.50
2018-02-23T11:39:46.116Z,29.00
2018-02-23T11:40:46.430Z,26.30
2018-02-23T11:41:46.745Z,25.90
2018-02-23T11:42:47.075Z,25.70
2018-02-23T11:43:47.376Z,30.80
2018-02-23T11:44:47.691Z,32.30
2018-02-23T11:45:48.016Z,29.60
2018-02-23T11:46:48.126Z,30.40
2018-02-23T11:47:48.446Z,27.90
2018-02-23T11:48:48.775Z,33.70
2018-02-23T11:49:49.073Z,29.00
2018-02-23T11:50:49.392Z,33.00
2018-02-23T11:51:49.713Z,27.50
2018-02-23T11:52:50.034Z,28.10
2018-02-23T11:53:50.356Z,29.40
2018-02-23T11:54:50.677Z,25.70
2018-02-23T11:55:51.011Z,30.70
2018-02-23T11:57:12.104Z,28.20
2018-02-23T11:57:51.405Z,35.00
2018-02-23T11:58:51.686Z,28.90
2018-02-23T11:59:52.006Z,25.80
2018-02-23T12:00:52.377Z,22.30
2018-02-23T12:01:52.645Z,22.30
2018-02-23T12:03:07.489Z,23.00
2018-02-23T12:03:53.124Z,24.60
2018-02-23T12:04:53.442Z,25.50
2018-02-23T12:05:53.762Z,27.20
2018-02-23T12:06:54.113Z,25.00
2018-02-23T12:07:54.413Z,23.40
2018-02-23T12:08:54.720Z,24.10
2018-02-23T12:09:55.037Z,27.10
2018-02-23T12:10:55.151Z,24.10
2018-02-23T12:11:55.472Z,27.40
2018-02-23T12:12:55.794Z,25.50
2018-02-23T12:13:56.115Z,26.80
2018-02-23T12:14:56.437Z,24.40
2018-02-23T12:15:56.759Z,28.40
2018-02-23T12:16:57.079Z,25.80
2018-02-23T12:17:57.409Z,32.70
2018-02-23T12:18:57.515Z,25.10
2018-02-23T12:19:57.856Z,28.70
2018-02-23T12:20:57.961Z,28.10
2018-02-23T12:21:58.291Z,25.20
2018-02-23T12:22:58.605Z,26.90
2018-02-23T12:23:58.922Z,29.40
2018-02-23T12:24:59.245Z,24.90
2018-02-23T12:25:59.567Z,25.90
2018-02-23T12:26:59.865Z,28.50
2018-02-23T12:28:00.182Z,25.80
2018-02-23T12:29:00.492Z,22.80
2018-02-23T12:30:00.813Z,27.40
2018-02-23T12:31:01.137Z,27.60
2018-02-23T12:32:01.477Z,27.40
2018-02-23T12:33:01.561Z,27.40
2018-02-23T12:34:01.905Z,29.30
2018-02-23T12:35:02.198Z,25.30
2018-02-23T12:36:02.523Z,27.90
2018-02-23T12:37:02.844Z,29.20
2018-02-23T12:38:03.168Z,30.30
2018-02-23T12:39:03.506Z,25.80
2018-02-23T12:40:03.617Z,28.50
2018-02-23T12:41:03.938Z,31.60
2018-02-23T12:42:04.254Z,31.50
2018-02-23T12:43:04.576Z,25.50
2018-02-23T12:44:04.899Z,26.30
2018-02-23T12:45:05.214Z,29.80
2018-02-23T12:46:05.536Z,28.00
2018-02-23T12:47:05.844Z,29.30
2018-02-23T12:48:06.168Z,24.40
2018-02-23T12:49:06.492Z,28.30
2018-02-23T12:50:06.812Z,26.70
2018-02-23T12:51:07.133Z,29.80
2018-02-23T12:52:07.455Z,27.40
2018-02-23T12:53:07.783Z,28.90
2018-02-23T12:54:08.113Z,32.60
2018-02-23T12:55:08.424Z,31.30
2018-02-23T12:56:08.539Z,27.90